sensor_id;sensor_type;location;lat;lon;timestamp;pressure;altitude;pressure_sealevel;temperature;humidity
39739;BME280;25422;48.286;8.484;2022-07-29T00:00:34;94062.03;;;15.66;100.00
39739;BME280;25422;48.286;8.484;2022-07-29T00:02:59;94056.34;;;15.62;100.00
39739;BME280;25422;48.286;8.484;2022-07-29T00:05:25;94061.22;;;15.59;100.00
39739;BME280;25422;48.286;8.484;2022-07-29T00:07:50;94066.09;;;15.48;100.00
39739;BME280;25422;48.286;8.484;2022-07-29T00:10:15;94063.66;;;15.40;100.00
39739;BME280;25422;48.286;8.484;2022-07-29T00:12:40;94061.59;;;15.42;100.00
39739;BME280;25422;48.286;8.484;2022-07-29T00:15:06;94054.09;;;15.39;100.00
39739;BME280;25422;48.286;8.484;2022-07-29T00:17:32;94057.59;;;15.46;100.00
39739;BME280;25422;48.286;8.484;2022-07-29T00:19:59;94045.78;;;15.42;100.00
39739;BME280;25422;48.286;8.484;2022-07-29T00:22:24;94047.84;;;15.47;100.00
39739;BME280;25422;48.286;8.484;2022-07-29T00:24:50;94040.13;;;15.45;100.00
39739;BME280;25422;48.286;8.484;2022-07-29T00:27:16;94036.50;;;15.40;100.00
39739;BME280;25422;48.286;8.484;2022-07-29T00:29:41;94032.44;;;15.37;100.00
39739;BME280;25422;48.286;8.484;2022-07-29T00:32:07;94038.28;;;15.39;100.00
39739;BME280;25422;48.286;8.484;2022-07-29T00:34:32;94025.75;;;15.41;100.00
39739;BME280;25422;48.286;8.484;2022-07-29T00:37:16;94026.75;;;15.40;100.00
39739;BME280;25422;48.286;8.484;2022-07-29T00:39:42;94028.75;;;15.38;100.00
39739;BME280;25422;48.286;8.484;2022-07-29T00:42:07;94020.84;;;15.38;100.00
39739;BME280;25422;48.286;8.484;2022-07-29T00:44:40;94017.00;;;15.34;100.00
39739;BME280;25422;48.286;8.484;2022-07-29T00:47:07;94018.84;;;15.40;100.00
39739;BME280;25422;48.286;8.484;2022-07-29T00:49:33;94019.44;;;15.42;100.00
39739;BME280;25422;48.286;8.484;2022-07-29T00:52:03;94024.91;;;15.47;100.00
39739;BME280;25422;48.286;8.484;2022-07-29T00:54:29;94012.94;;;15.45;100.00
39739;BME280;25422;48.286;8.484;2022-07-29T00:56:57;94016.78;;;15.42;100.00
39739;BME280;25422;48.286;8.484;2022-07-29T00:59:23;94014.78;;;15.44;100.00
39739;BME280;25422;48.286;8.484;2022-07-29T01:01:48;94011.13;;;15.45;100.00
39739;BME280;25422;48.286;8.484;2022-07-29T01:04:13;94004.22;;;15.44;100.00
39739;BME280;25422;48.286;8.484;2022-07-29T01:06:39;94009.50;;;15.38;100.00
39739;BME280;25422;48.286;8.484;2022-07-29T01:09:04;94006.44;;;15.34;100.00
39739;BME280;25422;48.286;8.484;2022-07-29T01:11:31;94004.66;;;15.34;100.00
39739;BME280;25422;48.286;8.484;2022-07-29T01:13:56;94002.00;;;15.34;100.00
39739;BME280;25422;48.286;8.484;2022-07-29T01:16:31;94006.06;;;15.37;100.00
39739;BME280;25422;48.286;8.484;2022-07-29T01:19:05;93997.53;;;15.35;100.00
39739;BME280;25422;48.286;8.484;2022-07-29T01:21:50;93987.81;;;15.29;100.00
39739;BME280;25422;48.286;8.484;2022-07-29T01:24:51;93988.84;;;15.21;100.00
39739;BME280;25422;48.286;8.484;2022-07-29T01:27:38;93997.53;;;15.15;100.00
39739;BME280;25422;48.286;8.484;2022-07-29T01:30:06;93993.09;;;15.15;100.00
39739;BME280;25422;48.286;8.484;2022-07-29T01:32:34;93996.72;;;15.14;100.00
39739;BME280;25422;48.286;8.484;2022-07-29T01:35:04;93994.31;;;15.13;100.00
39739;BME280;25422;48.286;8.484;2022-07-29T01:37:51;93990.84;;;14.92;100.00
39739;BME280;25422;48.286;8.484;2022-07-29T01:40:40;93993.22;;;14.67;100.00
39739;BME280;25422;48.286;8.484;2022-07-29T01:43:10;93996.00;;;14.59;100.00
39739;BME280;25422;48.286;8.484;2022-07-29T01:45:57;93994.97;;;14.46;100.00
39739;BME280;25422;48.286;8.484;2022-07-29T01:49:06;93997.94;;;14.30;100.00
39739;BME280;25422;48.286;8.484;2022-07-29T01:51:32;93991.03;;;14.22;100.00
39739;BME280;25422;48.286;8.484;2022-07-29T01:54:10;93993.03;;;14.13;100.00
39739;BME280;25422;48.286;8.484;2022-07-29T01:56:39;93986.66;;;14.01;100.00
39739;BME280;25422;48.286;8.484;2022-07-29T01:59:08;93980.63;;;14.00;100.00
39739;BME280;25422;48.286;8.484;2022-07-29T02:01:35;93995.97;;;13.97;100.00
39739;BME280;25422;48.286;8.484;2022-07-29T02:04:05;93987.66;;;13.93;100.00
39739;BME280;25422;48.286;8.484;2022-07-29T02:06:33;93991.72;;;13.96;100.00
39739;BME280;25422;48.286;8.484;2022-07-29T02:09:00;93988.06;;;13.97;100.00
39739;BME280;25422;48.286;8.484;2022-07-29T02:11:27;93982.44;;;14.00;100.00
39739;BME280;25422;48.286;8.484;2022-07-29T02:13:54;93981.81;;;13.98;100.00
39739;BME280;25422;48.286;8.484;2022-07-29T02:16:22;93989.47;;;13.93;100.00
39739;BME280;25422;48.286;8.484;2022-07-29T02:18:51;93976.31;;;13.93;100.00
39739;BME280;25422;48.286;8.484;2022-07-29T02:21:23;93983.41;;;13.92;100.00
39739;BME280;25422;48.286;8.484;2022-07-29T02:23:49;93987.03;;;13.91;100.00
39739;BME280;25422;48.286;8.484;2022-07-29T02:26:19;93978.91;;;13.86;100.00
39739;BME280;25422;48.286;8.484;2022-07-29T02:28:46;93977.34;;;13.92;100.00
39739;BME280;25422;48.286;8.484;2022-07-29T02:31:13;93985.59;;;13.89;100.00
39739;BME280;25422;48.286;8.484;2022-07-29T02:33:40;93978.94;;;13.93;100.00
39739;BME280;25422;48.286;8.484;2022-07-29T02:36:06;93973.31;;;13.96;100.00
39739;BME280;25422;48.286;8.484;2022-07-29T02:38:34;93973.50;;;13.94;100.00
39739;BME280;25422;48.286;8.484;2022-07-29T02:41:46;93982.00;;;13.96;100.00
39739;BME280;25422;48.286;8.484;2022-07-29T02:44:19;93979.78;;;13.93;100.00
39739;BME280;25422;48.286;8.484;2022-07-29T02:51:54;93971.63;;;13.81;100.00
39739;BME280;25422;48.286;8.484;2022-07-29T02:57:02;93975.88;;;13.82;100.00
39739;BME280;25422;48.286;8.484;2022-07-29T02:59:30;93983.56;;;13.84;100.00
39739;BME280;25422;48.286;8.484;2022-07-29T03:01:59;93980.09;;;13.83;100.00
39739;BME280;25422;48.286;8.484;2022-07-29T03:04:26;93978.50;;;13.82;100.00
39739;BME280;25422;48.286;8.484;2022-07-29T03:06:53;93988.41;;;13.80;100.00
39739;BME280;25422;48.286;8.484;2022-07-29T03:09:21;93987.34;;;13.75;100.00
39739;BME280;25422;48.286;8.484;2022-07-29T03:11:47;93981.84;;;13.70;100.00
39739;BME280;25422;48.286;8.484;2022-07-29T03:14:13;93985.28;;;13.63;100.00
39739;BME280;25422;48.286;8.484;2022-07-29T03:16:39;93990.94;;;13.67;100.00
39739;BME280;25422;48.286;8.484;2022-07-29T03:19:05;93989.34;;;13.66;100.00
39739;BME280;25422;48.286;8.484;2022-07-29T03:21:31;93985.63;;;13.60;100.00
39739;BME280;25422;48.286;8.484;2022-07-29T03:23:56;93988.47;;;13.59;100.00
39739;BME280;25422;48.286;8.484;2022-07-29T03:26:21;93981.78;;;13.56;100.00
39739;BME280;25422;48.286;8.484;2022-07-29T03:28:47;93987.28;;;13.61;100.00
39739;BME280;25422;48.286;8.484;2022-07-29T03:31:12;93985.47;;;13.62;100.00
39739;BME280;25422;48.286;8.484;2022-07-29T03:33:37;93978.81;;;13.66;100.00
39739;BME280;25422;48.286;8.484;2022-07-29T03:36:03;93987.06;;;13.63;100.00
39739;BME280;25422;48.286;8.484;2022-07-29T03:38:30;93986.66;;;13.59;100.00
39739;BME280;25422;48.286;8.484;2022-07-29T03:41:03;93988.84;;;13.56;100.00
39739;BME280;25422;48.286;8.484;2022-07-29T03:43:32;93987.19;;;13.48;100.00
39739;BME280;25422;48.286;8.484;2022-07-29T03:46:00;93980.28;;;13.40;100.00
39739;BME280;25422;48.286;8.484;2022-07-29T03:48:27;93991.97;;;13.38;100.00
39739;BME280;25422;48.286;8.484;2022-07-29T03:50:55;93977.72;;;13.25;100.00
39739;BME280;25422;48.286;8.484;2022-07-29T03:53:21;93991.16;;;13.15;100.00
39739;BME280;25422;48.286;8.484;2022-07-29T03:55:51;93990.88;;;13.04;100.00
39739;BME280;25422;48.286;8.484;2022-07-29T03:58:19;93980.94;;;12.99;100.00
39739;BME280;25422;48.286;8.484;2022-07-29T04:00:45;93988.06;;;13.05;100.00
39739;BME280;25422;48.286;8.484;2022-07-29T04:03:12;93987.47;;;13.10;100.00
39739;BME280;25422;48.286;8.484;2022-07-29T04:05:38;93986.78;;;13.23;100.00
39739;BME280;25422;48.286;8.484;2022-07-29T04:08:03;93990.22;;;13.23;100.00
39739;BME280;25422;48.286;8.484;2022-07-29T04:10:28;93993.47;;;13.25;100.00
39739;BME280;25422;48.286;8.484;2022-07-29T04:12:54;93989.81;;;13.26;100.00
39739;BME280;25422;48.286;8.484;2022-07-29T04:15:19;93994.03;;;13.21;100.00
39739;BME280;25422;48.286;8.484;2022-07-29T04:17:45;93989.81;;;13.26;100.00
39739;BME280;25422;48.286;8.484;2022-07-29T04:20:10;93996.41;;;13.37;100.00
39739;BME280;25422;48.286;8.484;2022-07-29T04:22:39;94000.97;;;13.50;100.00
39739;BME280;25422;48.286;8.484;2022-07-29T04:25:04;93997.34;;;13.58;100.00
39739;BME280;25422;48.286;8.484;2022-07-29T04:27:30;94007.88;;;13.58;100.00
39739;BME280;25422;48.286;8.484;2022-07-29T04:29:55;94003.25;;;13.60;100.00
39739;BME280;25422;48.286;8.484;2022-07-29T04:32:21;93998.78;;;13.60;100.00
39739;BME280;25422;48.286;8.484;2022-07-29T04:34:46;94003.19;;;13.53;100.00
39739;BME280;25422;48.286;8.484;2022-07-29T04:37:12;94009.78;;;13.42;100.00
39739;BME280;25422;48.286;8.484;2022-07-29T04:39:37;94006.41;;;13.48;100.00
39739;BME280;25422;48.286;8.484;2022-07-29T04:42:03;94004.78;;;13.47;100.00
39739;BME280;25422;48.286;8.484;2022-07-29T04:44:28;94003.69;;;13.63;100.00
39739;BME280;25422;48.286;8.484;2022-07-29T04:46:54;94007.19;;;13.77;100.00
39739;BME280;25422;48.286;8.484;2022-07-29T04:49:19;94006.47;;;13.97;100.00
39739;BME280;25422;48.286;8.484;2022-07-29T04:51:44;94001.91;;;14.12;100.00
39739;BME280;25422;48.286;8.484;2022-07-29T04:54:09;94008.66;;;14.22;100.00
39739;BME280;25422;48.286;8.484;2022-07-29T04:56:35;94006.69;;;14.44;100.00
39739;BME280;25422;48.286;8.484;2022-07-29T04:59:00;94001.56;;;14.77;100.00
39739;BME280;25422;48.286;8.484;2022-07-29T05:01:25;94006.06;;;15.10;100.00
39739;BME280;25422;48.286;8.484;2022-07-29T05:03:51;94004.84;;;15.46;100.00
39739;BME280;25422;48.286;8.484;2022-07-29T05:06:16;94004.66;;;15.55;100.00
39739;BME280;25422;48.286;8.484;2022-07-29T05:08:41;94009.72;;;15.83;100.00
39739;BME280;25422;48.286;8.484;2022-07-29T05:11:06;94007.44;;;16.00;100.00
39739;BME280;25422;48.286;8.484;2022-07-29T05:13:32;94006.34;;;16.28;100.00
39739;BME280;25422;48.286;8.484;2022-07-29T05:15:57;94008.25;;;16.52;100.00
39739;BME280;25422;48.286;8.484;2022-07-29T05:18:25;94007.97;;;17.06;100.00
39739;BME280;25422;48.286;8.484;2022-07-29T05:20:51;94012.94;;;17.97;100.00
39739;BME280;25422;48.286;8.484;2022-07-29T05:23:16;94020.69;;;18.35;100.00
39739;BME280;25422;48.286;8.484;2022-07-29T05:25:42;94020.19;;;18.08;100.00
39739;BME280;25422;48.286;8.484;2022-07-29T05:28:08;94022.44;;;17.79;100.00
39739;BME280;25422;48.286;8.484;2022-07-29T05:30:33;94018.53;;;17.38;100.00
39739;BME280;25422;48.286;8.484;2022-07-29T05:32:58;94014.59;;;17.47;100.00
39739;BME280;25422;48.286;8.484;2022-07-29T05:35:23;94024.50;;;17.27;100.00
39739;BME280;25422;48.286;8.484;2022-07-29T05:37:49;94023.16;;;17.17;100.00
39739;BME280;25422;48.286;8.484;2022-07-29T05:40:15;94028.16;;;17.00;100.00
39739;BME280;25422;48.286;8.484;2022-07-29T05:42:40;94025.53;;;16.87;100.00
39739;BME280;25422;48.286;8.484;2022-07-29T05:45:06;94021.97;;;16.75;100.00
39739;BME280;25422;48.286;8.484;2022-07-29T05:47:32;94026.28;;;16.62;100.00
39739;BME280;25422;48.286;8.484;2022-07-29T05:49:57;94026.84;;;16.71;100.00
39739;BME280;25422;48.286;8.484;2022-07-29T05:52:23;94019.50;;;16.80;100.00
39739;BME280;25422;48.286;8.484;2022-07-29T05:54:48;94018.03;;;16.91;100.00
39739;BME280;25422;48.286;8.484;2022-07-29T05:57:22;94027.56;;;16.98;100.00
39739;BME280;25422;48.286;8.484;2022-07-29T05:59:49;94021.41;;;17.05;100.00
39739;BME280;25422;48.286;8.484;2022-07-29T06:02:14;94024.19;;;17.16;100.00
39739;BME280;25422;48.286;8.484;2022-07-29T06:04:40;94027.66;;;17.42;100.00
39739;BME280;25422;48.286;8.484;2022-07-29T06:07:06;94024.59;;;17.70;100.00
39739;BME280;25422;48.286;8.484;2022-07-29T06:09:32;94037.59;;;17.72;100.00
39739;BME280;25422;48.286;8.484;2022-07-29T06:11:57;94034.16;;;17.72;100.00
39739;BME280;25422;48.286;8.484;2022-07-29T06:14:23;94036.66;;;17.85;100.00
39739;BME280;25422;48.286;8.484;2022-07-29T06:16:49;94039.41;;;17.97;100.00
39739;BME280;25422;48.286;8.484;2022-07-29T06:19:14;94039.56;;;18.02;100.00
39739;BME280;25422;48.286;8.484;2022-07-29T06:21:43;94042.97;;;18.09;100.00
39739;BME280;25422;48.286;8.484;2022-07-29T06:24:10;94042.16;;;18.09;100.00
39739;BME280;25422;48.286;8.484;2022-07-29T06:26:35;94045.31;;;18.17;100.00
39739;BME280;25422;48.286;8.484;2022-07-29T06:29:00;94039.59;;;18.58;100.00
39739;BME280;25422;48.286;8.484;2022-07-29T06:31:26;94043.56;;;18.67;100.00
39739;BME280;25422;48.286;8.484;2022-07-29T06:33:51;94039.25;;;18.84;100.00
39739;BME280;25422;48.286;8.484;2022-07-29T06:36:16;94037.13;;;19.35;100.00
39739;BME280;25422;48.286;8.484;2022-07-29T06:38:41;94034.66;;;20.47;100.00
39739;BME280;25422;48.286;8.484;2022-07-29T06:41:08;94032.53;;;20.73;100.00
39739;BME280;25422;48.286;8.484;2022-07-29T06:43:49;94042.06;;;20.86;100.00
39739;BME280;25422;48.286;8.484;2022-07-29T06:46:17;94040.94;;;20.82;96.60
39739;BME280;25422;48.286;8.484;2022-07-29T06:48:46;94041.78;;;20.70;94.43
39739;BME280;25422;48.286;8.484;2022-07-29T06:51:12;94046.72;;;20.79;94.60
39739;BME280;25422;48.286;8.484;2022-07-29T06:53:38;94039.22;;;21.50;93.25
39739;BME280;25422;48.286;8.484;2022-07-29T06:56:05;94050.94;;;22.34;84.13
39739;BME280;25422;48.286;8.484;2022-07-29T06:58:31;94043.53;;;23.08;76.22
39739;BME280;25422;48.286;8.484;2022-07-29T07:00:57;94049.81;;;24.11;67.91
39739;BME280;25422;48.286;8.484;2022-07-29T07:03:24;94041.59;;;25.70;59.38
39739;BME280;25422;48.286;8.484;2022-07-29T07:05:50;94038.16;;;27.02;50.02
39739;BME280;25422;48.286;8.484;2022-07-29T07:08:15;94040.56;;;27.04;49.17
39739;BME280;25422;48.286;8.484;2022-07-29T07:10:44;94037.97;;;26.68;47.15
39739;BME280;25422;48.286;8.484;2022-07-29T07:13:09;94054.19;;;25.75;49.00
39739;BME280;25422;48.286;8.484;2022-07-29T07:15:36;94049.28;;;26.59;48.04
39739;BME280;25422;48.286;8.484;2022-07-29T07:18:01;94056.22;;;26.81;46.72
39739;BME280;25422;48.286;8.484;2022-07-29T07:20:27;94053.16;;;27.03;45.49
39739;BME280;25422;48.286;8.484;2022-07-29T07:22:52;94046.63;;;28.34;42.60
39739;BME280;25422;48.286;8.484;2022-07-29T07:25:18;94039.88;;;28.12;41.67
39739;BME280;25422;48.286;8.484;2022-07-29T07:27:44;94035.59;;;29.08;39.50
39739;BME280;25422;48.286;8.484;2022-07-29T07:30:10;94040.81;;;27.92;41.81
39739;BME280;25422;48.286;8.484;2022-07-29T07:32:36;94037.81;;;29.63;38.12
39739;BME280;25422;48.286;8.484;2022-07-29T07:35:05;94042.13;;;29.45;38.60
39739;BME280;25422;48.286;8.484;2022-07-29T07:37:31;94031.56;;;30.34;36.14
39739;BME280;25422;48.286;8.484;2022-07-29T07:39:56;94035.31;;;30.05;36.61
39739;BME280;25422;48.286;8.484;2022-07-29T07:42:22;94032.94;;;30.78;35.42
39739;BME280;25422;48.286;8.484;2022-07-29T07:44:48;94037.03;;;30.75;34.98
39739;BME280;25422;48.286;8.484;2022-07-29T07:47:14;94055.13;;;29.76;36.85
39739;BME280;25422;48.286;8.484;2022-07-29T07:49:44;94049.59;;;29.10;37.76
39739;BME280;25422;48.286;8.484;2022-07-29T07:52:10;94048.19;;;28.69;39.91
39739;BME280;25422;48.286;8.484;2022-07-29T07:54:35;94045.97;;;28.96;39.67
39739;BME280;25422;48.286;8.484;2022-07-29T07:57:01;94050.78;;;28.50;38.87
39739;BME280;25422;48.286;8.484;2022-07-29T07:59:26;94041.34;;;29.20;37.91
39739;BME280;25422;48.286;8.484;2022-07-29T08:01:51;94053.72;;;29.21;37.09
39739;BME280;25422;48.286;8.484;2022-07-29T08:04:17;94051.47;;;28.85;37.81
39739;BME280;25422;48.286;8.484;2022-07-29T08:06:45;94065.81;;;27.53;39.35
39739;BME280;25422;48.286;8.484;2022-07-29T08:09:11;94064.94;;;28.85;38.22
39739;BME280;25422;48.286;8.484;2022-07-29T08:11:36;94058.03;;;29.22;37.08
39739;BME280;25422;48.286;8.484;2022-07-29T08:14:01;94043.88;;;30.07;35.91
39739;BME280;25422;48.286;8.484;2022-07-29T08:16:27;94052.16;;;30.30;36.11
39739;BME280;25422;48.286;8.484;2022-07-29T08:18:53;94054.53;;;31.06;33.73
39739;BME280;25422;48.286;8.484;2022-07-29T08:21:22;94054.72;;;30.68;33.84
39739;BME280;25422;48.286;8.484;2022-07-29T08:23:49;94059.78;;;30.41;33.73
39739;BME280;25422;48.286;8.484;2022-07-29T08:26:17;94059.19;;;30.44;33.71
39739;BME280;25422;48.286;8.484;2022-07-29T08:28:44;94060.66;;;30.04;34.59
39739;BME280;25422;48.286;8.484;2022-07-29T08:31:11;94067.53;;;29.77;35.25
39739;BME280;25422;48.286;8.484;2022-07-29T08:33:37;94064.78;;;28.76;36.38
39739;BME280;25422;48.286;8.484;2022-07-29T08:36:03;94074.81;;;28.12;38.03
39739;BME280;25422;48.286;8.484;2022-07-29T08:38:28;94074.63;;;28.33;37.58
39739;BME280;25422;48.286;8.484;2022-07-29T08:40:54;94076.91;;;28.44;37.60
39739;BME280;25422;48.286;8.484;2022-07-29T08:43:20;94076.81;;;28.01;38.61
39739;BME280;25422;48.286;8.484;2022-07-29T08:45:47;94085.28;;;27.74;38.80
39739;BME280;25422;48.286;8.484;2022-07-29T08:48:14;94086.06;;;27.30;39.81
39739;BME280;25422;48.286;8.484;2022-07-29T08:50:41;94080.81;;;27.04;40.59
39739;BME280;25422;48.286;8.484;2022-07-29T08:53:10;94084.63;;;26.92;41.59
39739;BME280;25422;48.286;8.484;2022-07-29T08:55:39;94089.03;;;26.47;42.65
39739;BME280;25422;48.286;8.484;2022-07-29T08:58:06;94092.25;;;26.23;42.99
39739;BME280;25422;48.286;8.484;2022-07-29T09:00:32;94079.41;;;26.25;43.06
39739;BME280;25422;48.286;8.484;2022-07-29T09:03:00;94091.69;;;26.37;43.10
39739;BME280;25422;48.286;8.484;2022-07-29T09:05:27;94087.16;;;27.23;41.61
39739;BME280;25422;48.286;8.484;2022-07-29T09:07:53;94093.44;;;28.38;39.21
39739;BME280;25422;48.286;8.484;2022-07-29T09:10:19;94083.09;;;27.81;39.68
39739;BME280;25422;48.286;8.484;2022-07-29T09:12:44;94085.41;;;27.58;39.58
39739;BME280;25422;48.286;8.484;2022-07-29T09:15:10;94096.28;;;27.27;39.63
39739;BME280;25422;48.286;8.484;2022-07-29T09:17:40;94093.63;;;27.22;40.29
39739;BME280;25422;48.286;8.484;2022-07-29T09:20:11;94090.03;;;26.67;41.21
39739;BME280;25422;48.286;8.484;2022-07-29T09:22:37;94099.50;;;26.38;42.41
39739;BME280;25422;48.286;8.484;2022-07-29T09:25:03;94096.84;;;26.07;41.80
39739;BME280;25422;48.286;8.484;2022-07-29T09:27:28;94096.03;;;26.07;42.88
39739;BME280;25422;48.286;8.484;2022-07-29T09:32:29;94093.91;;;24.99;45.27
39739;BME280;25422;48.286;8.484;2022-07-29T09:35:19;94099.94;;;24.69;45.74
39739;BME280;25422;48.286;8.484;2022-07-29T09:37:45;94094.81;;;24.62;46.40
39739;BME280;25422;48.286;8.484;2022-07-29T09:40:16;94093.34;;;24.97;46.09
39739;BME280;25422;48.286;8.484;2022-07-29T09:42:42;94101.19;;;24.61;46.68
39739;BME280;25422;48.286;8.484;2022-07-29T09:45:08;94092.94;;;24.25;47.70
39739;BME280;25422;48.286;8.484;2022-07-29T09:47:45;94084.47;;;24.38;48.26
39739;BME280;25422;48.286;8.484;2022-07-29T09:50:12;94084.22;;;24.40;47.83
39739;BME280;25422;48.286;8.484;2022-07-29T09:52:51;94088.94;;;24.65;47.94
39739;BME280;25422;48.286;8.484;2022-07-29T09:55:19;94084.78;;;24.42;47.38
39739;BME280;25422;48.286;8.484;2022-07-29T09:57:45;94082.72;;;24.60;46.87
39739;BME280;25422;48.286;8.484;2022-07-29T10:02:38;94080.44;;;24.79;47.62
39739;BME280;25422;48.286;8.484;2022-07-29T10:05:16;94086.88;;;24.83;47.59
39739;BME280;25422;48.286;8.484;2022-07-29T10:07:53;94092.94;;;24.63;47.62
39739;BME280;25422;48.286;8.484;2022-07-29T10:10:31;94091.38;;;24.72;47.47
39739;BME280;25422;48.286;8.484;2022-07-29T10:12:59;94094.16;;;24.92;46.72
39739;BME280;25422;48.286;8.484;2022-07-29T10:15:28;94088.09;;;25.18;46.61
39739;BME280;25422;48.286;8.484;2022-07-29T10:17:54;94086.97;;;25.03;46.72
39739;BME280;25422;48.286;8.484;2022-07-29T10:20:21;94087.25;;;25.07;47.50
39739;BME280;25422;48.286;8.484;2022-07-29T10:22:48;94088.22;;;25.64;45.94
39739;BME280;25422;48.286;8.484;2022-07-29T10:25:15;94086.41;;;26.06;44.92
39739;BME280;25422;48.286;8.484;2022-07-29T10:27:41;94085.03;;;26.19;43.70
39739;BME280;25422;48.286;8.484;2022-07-29T10:30:08;94081.69;;;26.94;42.75
39739;BME280;25422;48.286;8.484;2022-07-29T10:38:41;94085.06;;;27.15;42.08
39739;BME280;25422;48.286;8.484;2022-07-29T10:41:37;94086.81;;;26.75;41.96
39739;BME280;25422;48.286;8.484;2022-07-29T10:44:06;94085.03;;;27.25;40.99
39739;BME280;25422;48.286;8.484;2022-07-29T10:46:38;94081.09;;;27.57;40.01
39739;BME280;25422;48.286;8.484;2022-07-29T10:51:57;94087.00;;;27.04;40.12
39739;BME280;25422;48.286;8.484;2022-07-29T10:54:47;94089.00;;;27.38;40.44
39739;BME280;25422;48.286;8.484;2022-07-29T10:59:49;94076.25;;;27.59;40.11
39739;BME280;25422;48.286;8.484;2022-07-29T11:05:16;94077.47;;;26.52;43.74
39739;BME280;25422;48.286;8.484;2022-07-29T11:10:45;94071.59;;;25.52;46.33
39739;BME280;25422;48.286;8.484;2022-07-29T11:13:10;94077.47;;;25.54;45.45
39739;BME280;25422;48.286;8.484;2022-07-29T11:15:55;94089.56;;;25.87;44.91
39739;BME280;25422;48.286;8.484;2022-07-29T11:18:20;94089.56;;;25.98;43.78
39739;BME280;25422;48.286;8.484;2022-07-29T11:20:47;94091.19;;;25.83;44.53
39739;BME280;25422;48.286;8.484;2022-07-29T11:28:37;94087.81;;;27.05;42.05
39739;BME280;25422;48.286;8.484;2022-07-29T11:31:04;94094.56;;;26.92;42.58
39739;BME280;25422;48.286;8.484;2022-07-29T11:33:32;94101.09;;;26.39;42.80
39739;BME280;25422;48.286;8.484;2022-07-29T11:36:12;94094.16;;;26.38;42.54
39739;BME280;25422;48.286;8.484;2022-07-29T11:38:37;94097.06;;;26.42;41.67
39739;BME280;25422;48.286;8.484;2022-07-29T11:43:51;94095.69;;;26.75;41.90
39739;BME280;25422;48.286;8.484;2022-07-29T11:46:41;94109.59;;;26.93;42.18
39739;BME280;25422;48.286;8.484;2022-07-29T11:49:03;94107.00;;;26.31;42.47
39739;BME280;25422;48.286;8.484;2022-07-29T11:51:29;94097.50;;;26.96;41.70
39739;BME280;25422;48.286;8.484;2022-07-29T11:53:55;94104.63;;;27.26;40.05
39739;BME280;25422;48.286;8.484;2022-07-29T11:56:23;94102.19;;;27.30;39.10
39739;BME280;25422;48.286;8.484;2022-07-29T11:58:50;94102.59;;;27.57;38.59
39739;BME280;25422;48.286;8.484;2022-07-29T12:01:17;94096.13;;;27.98;37.88
39739;BME280;25422;48.286;8.484;2022-07-29T12:03:42;94082.97;;;28.02;37.72
39739;BME280;25422;48.286;8.484;2022-07-29T12:06:12;94093.19;;;28.34;36.43
39739;BME280;25422;48.286;8.484;2022-07-29T12:08:42;94093.53;;;28.22;36.50
39739;BME280;25422;48.286;8.484;2022-07-29T12:11:16;94088.19;;;27.83;37.51
39739;BME280;25422;48.286;8.484;2022-07-29T12:13:42;94082.72;;;27.58;37.00
39739;BME280;25422;48.286;8.484;2022-07-29T12:16:07;94082.50;;;27.50;35.46
39739;BME280;25422;48.286;8.484;2022-07-29T12:18:33;94087.16;;;28.13;35.13
39739;BME280;25422;48.286;8.484;2022-07-29T12:21:00;94083.19;;;27.66;36.09
39739;BME280;25422;48.286;8.484;2022-07-29T12:23:29;94088.88;;;27.04;36.78
39739;BME280;25422;48.286;8.484;2022-07-29T12:25:54;94077.56;;;27.17;36.69
39739;BME280;25422;48.286;8.484;2022-07-29T12:28:20;94096.00;;;26.48;38.92
39739;BME280;25422;48.286;8.484;2022-07-29T12:30:48;94100.84;;;26.31;39.23
39739;BME280;25422;48.286;8.484;2022-07-29T12:33:25;94097.31;;;25.68;39.47
39739;BME280;25422;48.286;8.484;2022-07-29T12:36:13;94094.38;;;25.90;39.03
39739;BME280;25422;48.286;8.484;2022-07-29T12:38:40;94090.41;;;26.19;39.29
39739;BME280;25422;48.286;8.484;2022-07-29T12:41:06;94095.47;;;26.36;38.49
39739;BME280;25422;48.286;8.484;2022-07-29T12:43:32;94094.97;;;26.08;38.58
39739;BME280;25422;48.286;8.484;2022-07-29T12:45:57;94105.88;;;25.55;39.15
39739;BME280;25422;48.286;8.484;2022-07-29T12:48:40;94100.50;;;25.50;39.52
39739;BME280;25422;48.286;8.484;2022-07-29T12:51:07;94103.31;;;25.07;39.85
39739;BME280;25422;48.286;8.484;2022-07-29T12:53:34;94103.75;;;24.88;40.87
39739;BME280;25422;48.286;8.484;2022-07-29T12:56:00;94109.53;;;24.70;41.35
39739;BME280;25422;48.286;8.484;2022-07-29T12:58:39;94107.63;;;25.18;40.92
39739;BME280;25422;48.286;8.484;2022-07-29T13:01:05;94107.19;;;25.47;40.00
39739;BME280;25422;48.286;8.484;2022-07-29T13:03:54;94113.88;;;25.34;40.17
39739;BME280;25422;48.286;8.484;2022-07-29T13:11:45;94110.78;;;25.05;40.78
39739;BME280;25422;48.286;8.484;2022-07-29T13:14:43;94106.81;;;25.13;40.43
39739;BME280;25422;48.286;8.484;2022-07-29T13:17:15;94110.38;;;25.39;40.04
39739;BME280;25422;48.286;8.484;2022-07-29T13:19:47;94114.00;;;25.07;40.94
39739;BME280;25422;48.286;8.484;2022-07-29T13:22:18;94116.31;;;24.83;41.64
39739;BME280;25422;48.286;8.484;2022-07-29T13:25:02;94111.19;;;24.76;41.53
39739;BME280;25422;48.286;8.484;2022-07-29T13:27:30;94125.22;;;24.56;41.98
39739;BME280;25422;48.286;8.484;2022-07-29T13:29:58;94118.75;;;24.09;41.78
39739;BME280;25422;48.286;8.484;2022-07-29T13:32:26;94122.44;;;24.03;41.88
39739;BME280;25422;48.286;8.484;2022-07-29T13:34:52;94125.31;;;24.29;42.25
39739;BME280;25422;48.286;8.484;2022-07-29T13:37:18;94117.00;;;24.25;42.54
39739;BME280;25422;48.286;8.484;2022-07-29T13:39:44;94120.75;;;23.92;41.63
39739;BME280;25422;48.286;8.484;2022-07-29T13:42:09;94117.06;;;23.98;42.79
39739;BME280;25422;48.286;8.484;2022-07-29T13:44:35;94117.53;;;23.89;42.30